Gustavus, Ohio
Current Conditions -  °F | °C
As of 1:51 AM on Sunday 26 Oct 2014 (Local Time) from KYNG Reporting Station
Clear Clear  
Wind Chill: 51°   Ceiling: Unl
Heat Index: 51°   Visibility: 10mi
Dew Point: 35°   Wind: 6mph
Humidity: 54%   Direction: 270°W
Pressure: 29.78"   Gusts: NA
Location:  41.4314°N, 80.6629°W
Report Text: KYNG 260551Z 27005KT 10SM CLR 11/02 A2978 RMK AO2 SLP084 T01060017 10161 20106 50004 $
Loading
Personal Weather Stations






























Interactive Weather Map
Tropical Storm Tracking
New forecast layout! Learn more

10-Day Weather Forecast

Advertisements
Track Severe Weather on mobile